sensor_id;sensor_type;location;lat;lon;timestamp;pressure;altitude;pressure_sealevel;temperature;humidity
36138;BME280;67787;50.074;21.904;2024-01-27T00:00:11;98941.27;;;2.37;74.98
36138;BME280;67787;50.074;21.904;2024-01-27T00:02:58;98939.73;;;2.45;74.98
36138;BME280;67787;50.074;21.904;2024-01-27T00:05:24;98942.96;;;2.56;74.99
36138;BME280;67787;50.074;21.904;2024-01-27T00:07:54;98944.23;;;2.67;75.22
36138;BME280;67787;50.074;21.904;2024-01-27T00:10:21;98945.53;;;2.78;75.80
36138;BME280;67787;50.074;21.904;2024-01-27T00:12:47;98951.77;;;2.88;75.99
36138;BME280;67787;50.074;21.904;2024-01-27T00:15:14;98955.96;;;2.96;76.05
36138;BME280;67787;50.074;21.904;2024-01-27T00:17:40;98957.17;;;3.05;76.58
36138;BME280;67787;50.074;21.904;2024-01-27T00:20:07;98954.98;;;3.11;76.95
36138;BME280;67787;50.074;21.904;2024-01-27T00:22:33;98955.88;;;3.15;77.27
36138;BME280;67787;50.074;21.904;2024-01-27T00:25:00;98951.32;;;3.19;77.16
36138;BME280;67787;50.074;21.904;2024-01-27T00:27:26;98961.61;;;3.28;78.21
36138;BME280;67787;50.074;21.904;2024-01-27T00:29:53;98964.73;;;3.32;77.98
36138;BME280;67787;50.074;21.904;2024-01-27T00:32:19;98962.23;;;3.37;78.36
36138;BME280;67787;50.074;21.904;2024-01-27T00:34:46;98968.57;;;3.45;79.31
36138;BME280;67787;50.074;21.904;2024-01-27T00:37:12;98972.20;;;3.53;79.63
36138;BME280;67787;50.074;21.904;2024-01-27T00:39:39;98970.83;;;3.57;79.51
36138;BME280;67787;50.074;21.904;2024-01-27T00:42:05;98975.55;;;3.62;80.08
36138;BME280;67787;50.074;21.904;2024-01-27T00:44:32;98979.81;;;3.64;79.96
36138;BME280;67787;50.074;21.904;2024-01-27T00:46:58;98979.31;;;3.67;80.06
36138;BME280;67787;50.074;21.904;2024-01-27T00:49:24;98987.96;;;3.69;80.37
36138;BME280;67787;50.074;21.904;2024-01-27T00:51:51;98987.01;;;3.71;80.68
36138;BME280;67787;50.074;21.904;2024-01-27T00:54:17;98988.29;;;3.70;80.22
36138;BME280;67787;50.074;21.904;2024-01-27T00:56:44;98994.73;;;3.71;80.41
36138;BME280;67787;50.074;21.904;2024-01-27T00:59:10;98995.23;;;3.71;80.21
36138;BME280;67787;50.074;21.904;2024-01-27T01:01:37;99000.05;;;3.74;80.72
36138;BME280;67787;50.074;21.904;2024-01-27T01:04:03;99003.14;;;3.76;80.90
36138;BME280;67787;50.074;21.904;2024-01-27T01:06:29;99002.34;;;3.78;81.29
36138;BME280;67787;50.074;21.904;2024-01-27T01:08:56;99005.52;;;3.81;81.56
36138;BME280;67787;50.074;21.904;2024-01-27T01:11:23;99007.84;;;3.84;81.53
36138;BME280;67787;50.074;21.904;2024-01-27T01:13:49;99011.30;;;3.88;81.78
36138;BME280;67787;50.074;21.904;2024-01-27T01:16:15;99010.96;;;3.92;81.83
36138;BME280;67787;50.074;21.904;2024-01-27T01:18:42;99015.48;;;3.93;81.82
36138;BME280;67787;50.074;21.904;2024-01-27T01:21:08;99015.38;;;3.96;82.10
36138;BME280;67787;50.074;21.904;2024-01-27T01:23:35;99020.86;;;3.98;82.23
36138;BME280;67787;50.074;21.904;2024-01-27T01:26:01;99021.45;;;4.01;82.32
36138;BME280;67787;50.074;21.904;2024-01-27T01:28:28;99022.89;;;4.04;82.29
36138;BME280;67787;50.074;21.904;2024-01-27T01:30:54;99023.97;;;4.08;82.82
36138;BME280;67787;50.074;21.904;2024-01-27T01:33:21;99025.86;;;4.08;82.90
36138;BME280;67787;50.074;21.904;2024-01-27T01:35:47;99031.48;;;4.08;82.82
36138;BME280;67787;50.074;21.904;2024-01-27T01:38:13;99033.52;;;4.10;82.90
36138;BME280;67787;50.074;21.904;2024-01-27T01:40:40;99030.45;;;4.11;82.76
36138;BME280;67787;50.074;21.904;2024-01-27T01:43:10;99039.15;;;4.13;83.22
36138;BME280;67787;50.074;21.904;2024-01-27T01:45:37;99040.52;;;4.14;83.19
36138;BME280;67787;50.074;21.904;2024-01-27T01:48:05;99043.92;;;4.16;83.44
36138;BME280;67787;50.074;21.904;2024-01-27T01:50:32;99048.28;;;4.16;83.65
36138;BME280;67787;50.074;21.904;2024-01-27T01:52:59;99056.02;;;4.16;83.63
36138;BME280;67787;50.074;21.904;2024-01-27T01:55:25;99064.14;;;4.15;83.86
36138;BME280;67787;50.074;21.904;2024-01-27T01:58:26;99075.27;;;4.13;83.75
36138;BME280;67787;50.074;21.904;2024-01-27T02:01:00;99082.11;;;4.13;83.83
36138;BME280;67787;50.074;21.904;2024-01-27T02:03:27;99084.61;;;4.13;83.76
36138;BME280;67787;50.074;21.904;2024-01-27T02:05:55;99093.25;;;4.12;83.79
36138;BME280;67787;50.074;21.904;2024-01-27T02:08:21;99094.54;;;4.11;83.60
36138;BME280;67787;50.074;21.904;2024-01-27T02:10:48;99109.08;;;4.08;83.39
36138;BME280;67787;50.074;21.904;2024-01-27T02:13:18;99113.59;;;4.05;83.25
36138;BME280;67787;50.074;21.904;2024-01-27T02:15:46;99121.58;;;4.03;82.99
36138;BME280;67787;50.074;21.904;2024-01-27T02:18:12;99130.46;;;4.00;83.04
36138;BME280;67787;50.074;21.904;2024-01-27T02:20:39;99137.80;;;3.97;82.85
36138;BME280;67787;50.074;21.904;2024-01-27T02:23:06;99144.79;;;3.94;83.02
36138;BME280;67787;50.074;21.904;2024-01-27T02:25:33;99156.23;;;3.93;82.97
36138;BME280;67787;50.074;21.904;2024-01-27T02:28:00;99158.65;;;3.89;82.75
36138;BME280;67787;50.074;21.904;2024-01-27T02:30:29;99166.30;;;3.87;82.65
36138;BME280;67787;50.074;21.904;2024-01-27T02:32:55;99169.16;;;3.82;82.75
36138;BME280;67787;50.074;21.904;2024-01-27T02:35:22;99174.45;;;3.73;82.52
36138;BME280;67787;50.074;21.904;2024-01-27T02:37:49;99190.44;;;3.68;82.62
36138;BME280;67787;50.074;21.904;2024-01-27T02:40:15;99200.77;;;3.64;82.30
36138;BME280;67787;50.074;21.904;2024-01-27T02:42:42;99204.40;;;3.61;82.14
36138;BME280;67787;50.074;21.904;2024-01-27T02:45:10;99205.45;;;3.57;82.05
36138;BME280;67787;50.074;21.904;2024-01-27T02:47:37;99204.15;;;3.54;82.09
36138;BME280;67787;50.074;21.904;2024-01-27T02:50:04;99210.08;;;3.51;81.89
36138;BME280;67787;50.074;21.904;2024-01-27T02:52:32;99215.13;;;3.48;81.95
36138;BME280;67787;50.074;21.904;2024-01-27T02:54:59;99218.56;;;3.45;81.96
36138;BME280;67787;50.074;21.904;2024-01-27T02:57:25;99221.39;;;3.45;81.63
36138;BME280;67787;50.074;21.904;2024-01-27T02:59:52;99233.98;;;3.41;81.71
36138;BME280;67787;50.074;21.904;2024-01-27T03:02:18;99236.70;;;3.39;81.70
36138;BME280;67787;50.074;21.904;2024-01-27T03:04:45;99259.14;;;3.34;81.63
36138;BME280;67787;50.074;21.904;2024-01-27T03:07:11;99243.32;;;3.31;81.51
36138;BME280;67787;50.074;21.904;2024-01-27T03:09:38;99243.86;;;3.30;81.35
36138;BME280;67787;50.074;21.904;2024-01-27T03:12:04;99247.17;;;3.26;81.60
36138;BME280;67787;50.074;21.904;2024-01-27T03:14:31;99245.57;;;3.27;81.06
36138;BME280;67787;50.074;21.904;2024-01-27T03:16:58;99249.05;;;3.23;81.34
36138;BME280;67787;50.074;21.904;2024-01-27T03:19:24;99244.73;;;3.17;81.00
36138;BME280;67787;50.074;21.904;2024-01-27T03:21:51;99248.02;;;3.14;81.02
36138;BME280;67787;50.074;21.904;2024-01-27T03:24:17;99244.52;;;3.09;81.13
36138;BME280;67787;50.074;21.904;2024-01-27T03:26:44;99254.34;;;3.05;80.62
36138;BME280;67787;50.074;21.904;2024-01-27T03:29:10;99255.99;;;3.03;80.95
36138;BME280;67787;50.074;21.904;2024-01-27T03:31:36;99264.02;;;2.98;80.58
36138;BME280;67787;50.074;21.904;2024-01-27T03:34:03;99270.23;;;2.97;80.41
36138;BME280;67787;50.074;21.904;2024-01-27T03:36:30;99269.92;;;2.95;80.30
36138;BME280;67787;50.074;21.904;2024-01-27T03:38:58;99269.41;;;2.95;80.26
36138;BME280;67787;50.074;21.904;2024-01-27T03:41:25;99272.65;;;2.93;79.94
36138;BME280;67787;50.074;21.904;2024-01-27T03:43:51;99271.96;;;2.92;79.81
36138;BME280;67787;50.074;21.904;2024-01-27T03:46:17;99269.83;;;2.93;79.42
36138;BME280;67787;50.074;21.904;2024-01-27T03:48:44;99266.27;;;2.95;78.99
36138;BME280;67787;50.074;21.904;2024-01-27T03:51:11;99275.00;;;2.95;78.52
36138;BME280;67787;50.074;21.904;2024-01-27T03:53:37;99276.84;;;2.93;78.61
36138;BME280;67787;50.074;21.904;2024-01-27T03:56:04;99283.80;;;2.94;78.38
36138;BME280;67787;50.074;21.904;2024-01-27T03:58:31;99292.14;;;2.96;78.11
36138;BME280;67787;50.074;21.904;2024-01-27T04:00:57;99290.95;;;2.95;78.31
36138;BME280;67787;50.074;21.904;2024-01-27T04:03:24;99293.30;;;2.93;78.11
36138;BME280;67787;50.074;21.904;2024-01-27T04:05:50;99296.30;;;2.93;77.65
36138;BME280;67787;50.074;21.904;2024-01-27T04:08:17;99299.48;;;2.92;77.51
36138;BME280;67787;50.074;21.904;2024-01-27T04:10:43;99301.96;;;2.91;77.21
36138;BME280;67787;50.074;21.904;2024-01-27T04:13:10;99303.96;;;2.94;77.25
36138;BME280;67787;50.074;21.904;2024-01-27T04:15:36;99306.81;;;2.97;77.30
36138;BME280;67787;50.074;21.904;2024-01-27T04:18:07;99314.05;;;2.96;76.91
36138;BME280;67787;50.074;21.904;2024-01-27T04:20:34;99315.23;;;2.97;77.22
36138;BME280;67787;50.074;21.904;2024-01-27T04:23:01;99320.95;;;2.99;77.41
36138;BME280;67787;50.074;21.904;2024-01-27T04:25:28;99320.59;;;2.99;77.06
36138;BME280;67787;50.074;21.904;2024-01-27T04:27:55;99322.68;;;2.99;76.82
36138;BME280;67787;50.074;21.904;2024-01-27T04:30:21;99312.61;;;3.02;77.29
36138;BME280;67787;50.074;21.904;2024-01-27T04:32:48;99307.35;;;3.02;77.07
36138;BME280;67787;50.074;21.904;2024-01-27T04:35:16;99316.68;;;3.01;76.93
36138;BME280;67787;50.074;21.904;2024-01-27T04:37:43;99315.83;;;3.00;76.57
36138;BME280;67787;50.074;21.904;2024-01-27T04:40:11;99315.52;;;2.99;76.71
36138;BME280;67787;50.074;21.904;2024-01-27T04:42:38;99317.95;;;3.00;76.62
36138;BME280;67787;50.074;21.904;2024-01-27T04:45:06;99318.97;;;3.01;76.28
36138;BME280;67787;50.074;21.904;2024-01-27T04:47:32;99316.66;;;3.01;76.63
36138;BME280;67787;50.074;21.904;2024-01-27T04:49:59;99319.60;;;3.02;76.29
36138;BME280;67787;50.074;21.904;2024-01-27T04:52:25;99317.39;;;3.01;75.96
36138;BME280;67787;50.074;21.904;2024-01-27T04:54:52;99316.89;;;3.00;75.94
36138;BME280;67787;50.074;21.904;2024-01-27T04:57:18;99314.63;;;2.99;76.02
36138;BME280;67787;50.074;21.904;2024-01-27T04:59:45;99323.41;;;2.99;75.90
36138;BME280;67787;50.074;21.904;2024-01-27T05:02:11;99326.73;;;2.99;75.77
36138;BME280;67787;50.074;21.904;2024-01-27T05:04:38;99328.85;;;2.99;75.75
36138;BME280;67787;50.074;21.904;2024-01-27T05:07:04;99320.44;;;2.99;75.32
36138;BME280;67787;50.074;21.904;2024-01-27T05:09:31;99330.42;;;2.99;75.37
36138;BME280;67787;50.074;21.904;2024-01-27T05:11:59;99338.02;;;3.01;75.61
36138;BME280;67787;50.074;21.904;2024-01-27T05:14:26;99342.48;;;3.04;75.13
36138;BME280;67787;50.074;21.904;2024-01-27T05:16:52;99343.67;;;3.05;74.95
36138;BME280;67787;50.074;21.904;2024-01-27T05:19:19;99346.45;;;3.06;75.12
36138;BME280;67787;50.074;21.904;2024-01-27T05:21:45;99344.64;;;3.07;74.97
36138;BME280;67787;50.074;21.904;2024-01-27T05:24:12;99344.46;;;3.07;74.75
36138;BME280;67787;50.074;21.904;2024-01-27T05:26:38;99349.42;;;3.06;74.58
36138;BME280;67787;50.074;21.904;2024-01-27T05:29:05;99355.54;;;3.06;74.40
36138;BME280;67787;50.074;21.904;2024-01-27T05:31:31;99359.67;;;3.08;74.40
36138;BME280;67787;50.074;21.904;2024-01-27T05:33:57;99358.92;;;3.09;74.45
36138;BME280;67787;50.074;21.904;2024-01-27T05:36:24;99359.88;;;3.07;74.37
36138;BME280;67787;50.074;21.904;2024-01-27T05:38:51;99361.80;;;3.07;74.03
36138;BME280;67787;50.074;21.904;2024-01-27T05:41:17;99367.80;;;3.06;74.06
36138;BME280;67787;50.074;21.904;2024-01-27T05:43:44;99371.20;;;3.05;73.67
36138;BME280;67787;50.074;21.904;2024-01-27T05:46:10;99372.60;;;3.04;74.05
36138;BME280;67787;50.074;21.904;2024-01-27T05:48:36;99380.34;;;3.04;73.68
36138;BME280;67787;50.074;21.904;2024-01-27T05:51:03;99380.73;;;3.03;73.30
36138;BME280;67787;50.074;21.904;2024-01-27T05:53:30;99387.41;;;3.02;73.46
36138;BME280;67787;50.074;21.904;2024-01-27T05:55:57;99389.31;;;3.03;73.26
36138;BME280;67787;50.074;21.904;2024-01-27T05:58:23;99394.39;;;3.03;73.19
36138;BME280;67787;50.074;21.904;2024-01-27T06:00:50;99398.47;;;3.01;73.40
36138;BME280;67787;50.074;21.904;2024-01-27T06:03:16;99392.92;;;3.00;73.29
36138;BME280;67787;50.074;21.904;2024-01-27T06:05:43;99397.09;;;3.01;73.14
36138;BME280;67787;50.074;21.904;2024-01-27T06:08:10;99399.91;;;3.00;73.53
36138;BME280;67787;50.074;21.904;2024-01-27T06:10:36;99413.98;;;2.99;73.48
36138;BME280;67787;50.074;21.904;2024-01-27T06:13:03;99415.23;;;2.98;73.24
36138;BME280;67787;50.074;21.904;2024-01-27T06:15:30;99417.35;;;2.97;73.11
36138;BME280;67787;50.074;21.904;2024-01-27T06:17:56;99420.23;;;2.96;73.52
36138;BME280;67787;50.074;21.904;2024-01-27T06:20:24;99413.47;;;2.93;73.12
36138;BME280;67787;50.074;21.904;2024-01-27T06:22:50;99415.48;;;2.91;73.22
36138;BME280;67787;50.074;21.904;2024-01-27T06:25:20;99420.55;;;2.91;73.41
36138;BME280;67787;50.074;21.904;2024-01-27T06:27:46;99418.16;;;2.90;73.38
36138;BME280;67787;50.074;21.904;2024-01-27T06:30:13;99425.89;;;2.89;73.31
36138;BME280;67787;50.074;21.904;2024-01-27T06:32:41;99428.40;;;2.87;73.59
36138;BME280;67787;50.074;21.904;2024-01-27T06:35:07;99433.93;;;2.85;73.66
36138;BME280;67787;50.074;21.904;2024-01-27T06:37:35;99428.02;;;2.83;73.75
36138;BME280;67787;50.074;21.904;2024-01-27T06:40:01;99429.11;;;2.82;73.54
36138;BME280;67787;50.074;21.904;2024-01-27T06:42:28;99425.29;;;2.81;73.82
36138;BME280;67787;50.074;21.904;2024-01-27T06:44:54;99422.02;;;2.80;73.95
36138;BME280;67787;50.074;21.904;2024-01-27T06:47:21;99427.88;;;2.77;73.90
36138;BME280;67787;50.074;21.904;2024-01-27T06:49:47;99429.75;;;2.79;73.85
36138;BME280;67787;50.074;21.904;2024-01-27T06:52:14;99431.69;;;2.78;74.05
36138;BME280;67787;50.074;21.904;2024-01-27T06:54:40;99436.47;;;2.77;73.94
36138;BME280;67787;50.074;21.904;2024-01-27T06:57:20;99440.80;;;2.78;73.93
36138;BME280;67787;50.074;21.904;2024-01-27T06:59:48;99441.81;;;2.79;73.93
36138;BME280;67787;50.074;21.904;2024-01-27T08:28:54;99520.55;;;3.18;71.65
36138;BME280;67787;50.074;21.904;2024-01-27T08:31:29;99518.45;;;3.18;71.51
36138;BME280;67787;50.074;21.904;2024-01-27T08:34:13;99525.96;;;3.19;71.66
36138;BME280;67787;50.074;21.904;2024-01-27T08:40:58;99530.04;;;3.22;71.56
36138;BME280;67787;50.074;21.904;2024-01-27T08:43:25;99524.98;;;3.21;71.57
36138;BME280;67787;50.074;21.904;2024-01-27T08:45:52;99525.48;;;3.23;71.46
36138;BME280;67787;50.074;21.904;2024-01-27T08:48:37;99529.88;;;3.26;71.39
36138;BME280;67787;50.074;21.904;2024-01-27T08:51:14;99532.58;;;3.29;71.37
36138;BME280;67787;50.074;21.904;2024-01-27T08:53:49;99526.74;;;3.32;71.79
36138;BME280;67787;50.074;21.904;2024-01-27T08:56:16;99526.98;;;3.30;71.62
36138;BME280;67787;50.074;21.904;2024-01-27T08:58:44;99523.98;;;3.25;71.69
36138;BME280;67787;50.074;21.904;2024-01-27T09:01:10;99526.09;;;3.25;71.58
36138;BME280;67787;50.074;21.904;2024-01-27T09:08:15;99526.83;;;3.19;71.99
36138;BME280;67787;50.074;21.904;2024-01-27T09:11:28;99535.23;;;3.14;72.18
36138;BME280;67787;50.074;21.904;2024-01-27T09:14:02;99540.80;;;3.10;72.21
36138;BME280;67787;50.074;21.904;2024-01-27T09:17:11;99544.73;;;3.03;72.36
36138;BME280;67787;50.074;21.904;2024-01-27T09:19:44;99545.76;;;2.98;72.48
36138;BME280;67787;50.074;21.904;2024-01-27T09:22:31;99549.67;;;2.91;72.75
36138;BME280;67787;50.074;21.904;2024-01-27T09:24:57;99538.54;;;2.84;72.91
36138;BME280;67787;50.074;21.904;2024-01-27T09:27:24;99539.64;;;2.87;73.05
36138;BME280;67787;50.074;21.904;2024-01-27T09:37:56;99537.67;;;2.98;73.17
36138;BME280;67787;50.074;21.904;2024-01-27T09:40:50;99543.30;;;2.98;73.24
36138;BME280;67787;50.074;21.904;2024-01-27T10:00:27;99558.05;;;2.87;73.06
36138;BME280;67787;50.074;21.904;2024-01-27T10:02:56;99550.91;;;2.80;73.27
36138;BME280;67787;50.074;21.904;2024-01-27T10:13:59;99553.48;;;2.76;73.54
36138;BME280;67787;50.074;21.904;2024-01-27T10:16:47;99551.09;;;2.74;73.73
36138;BME280;67787;50.074;21.904;2024-01-27T10:19:20;99556.95;;;2.72;73.66
36138;BME280;67787;50.074;21.904;2024-01-27T10:27:14;99556.04;;;2.62;74.33
36138;BME280;67787;50.074;21.904;2024-01-27T10:35:33;99562.44;;;2.54;74.93
36138;BME280;67787;50.074;21.904;2024-01-27T10:38:00;99565.84;;;2.51;75.10
36138;BME280;67787;50.074;21.904;2024-01-27T10:40:27;99566.45;;;2.48;74.78
36138;BME280;67787;50.074;21.904;2024-01-27T10:43:03;99565.92;;;2.48;75.18
36138;BME280;67787;50.074;21.904;2024-01-27T10:45:37;99569.25;;;2.48;75.27
36138;BME280;67787;50.074;21.904;2024-01-27T10:48:07;99569.33;;;2.46;75.18
36138;BME280;67787;50.074;21.904;2024-01-27T10:50:43;99570.21;;;2.45;75.23
36138;BME280;67787;50.074;21.904;2024-01-27T10:53:22;99569.59;;;2.43;75.60
36138;BME280;67787;50.074;21.904;2024-01-27T10:56:16;99569.17;;;2.40;75.54
36138;BME280;67787;50.074;21.904;2024-01-27T11:04:06;99575.98;;;2.29;76.52
36138;BME280;67787;50.074;21.904;2024-01-27T11:07:26;99585.08;;;2.23;76.73
36138;BME280;67787;50.074;21.904;2024-01-27T11:10:19;99581.70;;;2.20;76.95
36138;BME280;67787;50.074;21.904;2024-01-27T11:12:52;99586.39;;;2.20;76.87
36138;BME280;67787;50.074;21.904;2024-01-27T11:15:32;99581.86;;;2.20;77.22
36138;BME280;67787;50.074;21.904;2024-01-27T11:17:59;99582.40;;;2.19;77.15
36138;BME280;67787;50.074;21.904;2024-01-27T11:20:26;99589.48;;;2.16;77.48
36138;BME280;67787;50.074;21.904;2024-01-27T11:23:08;99594.91;;;2.16;77.13
36138;BME280;67787;50.074;21.904;2024-01-27T11:34:44;99592.34;;;2.02;78.11
36138;BME280;67787;50.074;21.904;2024-01-27T11:37:16;99599.68;;;2.03;78.23
36138;BME280;67787;50.074;21.904;2024-01-27T11:39:43;99601.70;;;2.05;78.21
36138;BME280;67787;50.074;21.904;2024-01-27T11:42:11;99599.66;;;2.03;78.02
36138;BME280;67787;50.074;21.904;2024-01-27T11:44:42;99597.89;;;2.04;77.86
36138;BME280;67787;50.074;21.904;2024-01-27T11:47:16;99599.77;;;2.05;78.38
36138;BME280;67787;50.074;21.904;2024-01-27T11:49:51;99603.13;;;2.04;78.42
36138;BME280;67787;50.074;21.904;2024-01-27T11:52:19;99596.23;;;2.00;78.53
36138;BME280;67787;50.074;21.904;2024-01-27T11:54:46;99603.59;;;2.00;78.28
36138;BME280;67787;50.074;21.904;2024-01-27T11:57:19;99601.36;;;1.99;78.68
36138;BME280;67787;50.074;21.904;2024-01-27T11:59:46;99607.81;;;2.00;78.66
36138;BME280;67787;50.074;21.904;2024-01-27T12:02:12;99607.65;;;1.99;78.70
36138;BME280;67787;50.074;21.904;2024-01-27T12:04:39;99612.11;;;2.02;78.77
36138;BME280;67787;50.074;21.904;2024-01-27T12:07:07;99611.23;;;2.02;79.04
36138;BME280;67787;50.074;21.904;2024-01-27T12:09:33;99614.05;;;2.02;79.27
36138;BME280;67787;50.074;21.904;2024-01-27T12:12:01;99613.07;;;1.99;79.23
36138;BME280;67787;50.074;21.904;2024-01-27T12:14:47;99617.61;;;2.00;79.55
36138;BME280;67787;50.074;21.904;2024-01-27T12:17:15;99619.83;;;2.02;79.57
36138;BME280;67787;50.074;21.904;2024-01-27T12:19:53;99619.52;;;2.06;79.57
36138;BME280;67787;50.074;21.904;2024-01-27T12:22:21;99624.88;;;2.08;79.63
36138;BME280;67787;50.074;21.904;2024-01-27T12:24:48;99625.92;;;2.08;79.43
36138;BME280;67787;50.074;21.904;2024-01-27T12:27:18;99631.66;;;2.09;79.52
36138;BME280;67787;50.074;21.904;2024-01-27T12:29:49;99631.61;;;2.11;79.66
36138;BME280;67787;50.074;21.904;2024-01-27T12:32:25;99633.16;;;2.12;80.05
36138;BME280;67787;50.074;21.904;2024-01-27T12:34:52;99631.77;;;2.12;79.85
36138;BME280;67787;50.074;21.904;2024-01-27T12:37:21;99636.95;;;2.14;80.07
36138;BME280;67787;50.074;21.904;2024-01-27T12:39:48;99641.49;;;2.15;80.34
36138;BME280;67787;50.074;21.904;2024-01-27T12:42:17;99645.16;;;2.15;80.47
36138;BME280;67787;50.074;21.904;2024-01-27T12:44:44;99647.14;;;2.13;80.31
36138;BME280;67787;50.074;21.904;2024-01-27T12:47:15;99648.91;;;2.12;80.24
36138;BME280;67787;50.074;21.904;2024-01-27T12:50:00;99649.59;;;2.13;80.23
36138;BME280;67787;50.074;21.904;2024-01-27T12:52:29;99653.36;;;2.09;80.55
36138;BME280;67787;50.074;21.904;2024-01-27T12:54:55;99654.02;;;2.10;80.54
36138;BME280;67787;50.074;21.904;2024-01-27T12:57:22;99656.42;;;2.13;80.43
36138;BME280;67787;50.074;21.904;2024-01-27T12:59:49;99661.95;;;2.15;80.43
36138;BME280;67787;50.074;21.904;2024-01-27T13:02:17;99664.41;;;2.15;80.60
36138;BME280;67787;50.074;21.904;2024-01-27T13:04:43;99665.66;;;2.14;80.61
36138;BME280;67787;50.074;21.904;2024-01-27T13:07:11;99666.58;;;2.12;80.92
36138;BME280;67787;50.074;21.904;2024-01-27T13:09:38;99666.89;;;2.14;80.90
36138;BME280;67787;50.074;21.904;2024-01-27T13:12:04;99668.25;;;2.15;81.20
36138;BME280;67787;50.074;21.904;2024-01-27T13:14:31;99667.37;;;2.15;81.17
36138;BME280;67787;50.074;21.904;2024-01-27T13:16:57;99673.52;;;2.15;80.97
36138;BME280;67787;50.074;21.904;2024-01-27T13:19:27;99676.98;;;2.16;81.16
36138;BME280;67787;50.074;21.904;2024-01-27T13:21:54;99678.11;;;2.19;81.09
36138;BME280;67787;50.074;21.904;2024-01-27T13:24:20;99680.65;;;2.22;81.24
36138;BME280;67787;50.074;21.904;2024-01-27T13:26:47;99678.21;;;2.22;81.04
36138;BME280;67787;50.074;21.904;2024-01-27T13:29:13;99672.93;;;2.23;81.42
36138;BME280;67787;50.074;21.904;2024-01-27T13:31:39;99678.16;;;2.23;81.29
36138;BME280;67787;50.074;21.904;2024-01-27T13:34:06;99676.68;;;2.26;81.05
36138;BME280;67787;50.074;21.904;2024-01-27T13:36:35;99678.83;;;2.25;81.31
36138;BME280;67787;50.074;21.904;2024-01-27T13:39:02;99682.68;;;2.25;81.40
36138;BME280;67787;50.074;21.904;2024-01-27T13:41:28;99687.31;;;2.28;81.22
36138;BME280;67787;50.074;21.904;2024-01-27T13:43:55;99691.31;;;2.29;81.25
36138;BME280;67787;50.074;21.904;2024-01-27T13:46:21;99696.00;;;2.30;81.36
36138;BME280;67787;50.074;21.904;2024-01-27T13:48:51;99699.52;;;2.29;81.36
36138;BME280;67787;50.074;21.904;2024-01-27T13:51:17;99703.88;;;2.30;81.38
36138;BME280;67787;50.074;21.904;2024-01-27T13:53:44;99706.39;;;2.28;81.51
36138;BME280;67787;50.074;21.904;2024-01-27T13:56:14;99709.67;;;2.30;81.23
36138;BME280;67787;50.074;21.904;2024-01-27T13:58:41;99714.77;;;2.28;81.38
36138;BME280;67787;50.074;21.904;2024-01-27T14:01:07;99715.02;;;2.25;81.58
36138;BME280;67787;50.074;21.904;2024-01-27T14:03:34;99718.92;;;2.24;81.50
36138;BME280;67787;50.074;21.904;2024-01-27T14:06:01;99715.04;;;2.25;81.66
36138;BME280;67787;50.074;21.904;2024-01-27T14:08:27;99726.24;;;2.25;81.70
36138;BME280;67787;50.074;21.904;2024-01-27T14:10:54;99737.07;;;2.26;81.53
36138;BME280;67787;50.074;21.904;2024-01-27T14:13:20;99740.38;;;2.27;81.54
36138;BME280;67787;50.074;21.904;2024-01-27T14:15:49;99738.25;;;2.28;81.75
36138;BME280;67787;50.074;21.904;2024-01-27T14:18:16;99741.02;;;2.29;81.64
36138;BME280;67787;50.074;21.904;2024-01-27T14:20:47;99743.77;;;2.30;81.90
36138;BME280;67787;50.074;21.904;2024-01-27T14:23:15;99747.11;;;2.30;81.81
36138;BME280;67787;50.074;21.904;2024-01-27T14:25:41;99748.70;;;2.29;81.75
36138;BME280;67787;50.074;21.904;2024-01-27T14:28:12;99754.37;;;2.27;81.94
36138;BME280;67787;50.074;21.904;2024-01-27T14:30:40;99752.19;;;2.24;82.00
36138;BME280;67787;50.074;21.904;2024-01-27T14:33:07;99758.51;;;2.23;82.18
36138;BME280;67787;50.074;21.904;2024-01-27T14:35:33;99760.54;;;2.25;81.94
36138;BME280;67787;50.074;21.904;2024-01-27T14:37:59;99761.27;;;2.25;82.11
36138;BME280;67787;50.074;21.904;2024-01-27T14:40:27;99764.23;;;2.25;82.19
36138;BME280;67787;50.074;21.904;2024-01-27T14:42:54;99765.32;;;2.24;82.07
36138;BME280;67787;50.074;21.904;2024-01-27T14:45:20;99767.27;;;2.22;82.54
36138;BME280;67787;50.074;21.904;2024-01-27T14:47:47;99767.31;;;2.21;82.21
36138;BME280;67787;50.074;21.904;2024-01-27T14:50:16;99773.86;;;2.18;82.17
36138;BME280;67787;50.074;21.904;2024-01-27T14:52:46;99776.98;;;2.19;82.29
36138;BME280;67787;50.074;21.904;2024-01-27T14:55:12;99780.67;;;2.18;82.38
36138;BME280;67787;50.074;21.904;2024-01-27T14:57:41;99784.27;;;2.21;82.28
36138;BME280;67787;50.074;21.904;2024-01-27T15:00:08;99788.82;;;2.21;82.23
36138;BME280;67787;50.074;21.904;2024-01-27T15:02:37;99793.70;;;2.23;82.12
36138;BME280;67787;50.074;21.904;2024-01-27T15:05:04;99793.58;;;2.20;82.35
36138;BME280;67787;50.074;21.904;2024-01-27T15:07:34;99790.83;;;2.18;82.31
36138;BME280;67787;50.074;21.904;2024-01-27T15:10:01;99798.55;;;2.18;82.12
36138;BME280;67787;50.074;21.904;2024-01-27T15:12:27;99798.39;;;2.17;82.69
36138;BME280;67787;50.074;21.904;2024-01-27T15:14:54;99803.66;;;2.16;82.27
36138;BME280;67787;50.074;21.904;2024-01-27T15:17:20;99802.05;;;2.18;82.12
36138;BME280;67787;50.074;21.904;2024-01-27T15:19:50;99810.41;;;2.18;82.47
36138;BME280;67787;50.074;21.904;2024-01-27T15:22:25;99813.86;;;2.21;82.53
36138;BME280;67787;50.074;21.904;2024-01-27T15:24:51;99817.64;;;2.23;82.06
36138;BME280;67787;50.074;21.904;2024-01-27T15:27:19;99824.88;;;2.21;82.39
36138;BME280;67787;50.074;21.904;2024-01-27T15:29:47;99823.35;;;2.19;82.38
36138;BME280;67787;50.074;21.904;2024-01-27T15:32:15;99831.59;;;2.19;82.21
36138;BME280;67787;50.074;21.904;2024-01-27T15:34:47;99838.70;;;2.22;82.53
36138;BME280;67787;50.074;21.904;2024-01-27T15:37:16;99838.28;;;2.24;81.93
36138;BME280;67787;50.074;21.904;2024-01-27T15:39:43;99843.02;;;2.23;81.90
36138;BME280;67787;50.074;21.904;2024-01-27T15:42:09;99848.45;;;2.23;82.20